sensor_id;sensor_type;location;lat;lon;timestamp;P1;durP1;ratioP1;P2;durP2;ratioP2
5995;SDS011;3026;53.612;7.278;2023-02-01T00:01:29;24.73;;;6.00;;
5995;SDS011;3026;53.612;7.278;2023-02-01T00:03:56;32.07;;;6.53;;
5995;SDS011;3026;53.612;7.278;2023-02-01T00:06:24;29.40;;;7.13;;
5995;SDS011;3026;53.612;7.278;2023-02-01T00:08:52;34.23;;;7.07;;
5995;SDS011;3026;53.612;7.278;2023-02-01T00:11:19;29.40;;;5.93;;
5995;SDS011;3026;53.612;7.278;2023-02-01T00:13:47;31.37;;;6.47;;
5995;SDS011;3026;53.612;7.278;2023-02-01T00:16:15;31.47;;;6.00;;
5995;SDS011;3026;53.612;7.278;2023-02-01T00:18:43;27.47;;;5.50;;
5995;SDS011;3026;53.612;7.278;2023-02-01T00:21:11;25.63;;;4.97;;
5995;SDS011;3026;53.612;7.278;2023-02-01T00:23:40;41.90;;;7.13;;
5995;SDS011;3026;53.612;7.278;2023-02-01T00:26:09;31.83;;;6.70;;
5995;SDS011;3026;53.612;7.278;2023-02-01T00:28:40;29.13;;;5.87;;
5995;SDS011;3026;53.612;7.278;2023-02-01T00:31:07;23.63;;;5.87;;
5995;SDS011;3026;53.612;7.278;2023-02-01T00:33:34;27.00;;;8.27;;
5995;SDS011;3026;53.612;7.278;2023-02-01T00:36:02;37.60;;;8.33;;
5995;SDS011;3026;53.612;7.278;2023-02-01T00:38:30;38.83;;;5.50;;
5995;SDS011;3026;53.612;7.278;2023-02-01T00:41:03;34.50;;;6.57;;
5995;SDS011;3026;53.612;7.278;2023-02-01T00:43:31;29.87;;;6.23;;
5995;SDS011;3026;53.612;7.278;2023-02-01T00:45:59;32.27;;;8.47;;
5995;SDS011;3026;53.612;7.278;2023-02-01T00:48:26;26.43;;;6.67;;
5995;SDS011;3026;53.612;7.278;2023-02-01T00:50:54;29.67;;;5.33;;
5995;SDS011;3026;53.612;7.278;2023-02-01T00:53:21;24.23;;;5.13;;
5995;SDS011;3026;53.612;7.278;2023-02-01T00:55:48;27.60;;;5.37;;
5995;SDS011;3026;53.612;7.278;2023-02-01T00:58:16;23.40;;;5.47;;
5995;SDS011;3026;53.612;7.278;2023-02-01T01:00:43;32.40;;;6.10;;
5995;SDS011;3026;53.612;7.278;2023-02-01T01:03:11;32.87;;;7.53;;
5995;SDS011;3026;53.612;7.278;2023-02-01T01:05:43;26.27;;;6.30;;
5995;SDS011;3026;53.612;7.278;2023-02-01T01:08:11;32.10;;;6.53;;
5995;SDS011;3026;53.612;7.278;2023-02-01T01:10:38;35.33;;;8.83;;
5995;SDS011;3026;53.612;7.278;2023-02-01T01:13:05;26.80;;;6.20;;
5995;SDS011;3026;53.612;7.278;2023-02-01T01:15:36;31.40;;;6.20;;
5995;SDS011;3026;53.612;7.278;2023-02-01T01:18:04;24.17;;;5.53;;
5995;SDS011;3026;53.612;7.278;2023-02-01T01:20:33;37.23;;;6.67;;
5995;SDS011;3026;53.612;7.278;2023-02-01T01:23:01;32.20;;;6.73;;
5995;SDS011;3026;53.612;7.278;2023-02-01T01:25:28;35.13;;;6.27;;
5995;SDS011;3026;53.612;7.278;2023-02-01T01:27:55;32.17;;;7.00;;
5995;SDS011;3026;53.612;7.278;2023-02-01T01:30:22;31.00;;;5.53;;
5995;SDS011;3026;53.612;7.278;2023-02-01T01:32:50;32.50;;;6.93;;
5995;SDS011;3026;53.612;7.278;2023-02-01T01:35:18;24.83;;;5.43;;
5995;SDS011;3026;53.612;7.278;2023-02-01T01:37:45;29.23;;;5.47;;
5995;SDS011;3026;53.612;7.278;2023-02-01T01:40:12;32.27;;;6.27;;
5995;SDS011;3026;53.612;7.278;2023-02-01T01:42:39;27.00;;;5.20;;
5995;SDS011;3026;53.612;7.278;2023-02-01T01:45:11;26.13;;;5.83;;
5995;SDS011;3026;53.612;7.278;2023-02-01T01:47:47;35.33;;;6.43;;
5995;SDS011;3026;53.612;7.278;2023-02-01T01:50:20;28.87;;;5.37;;
5995;SDS011;3026;53.612;7.278;2023-02-01T01:52:50;31.90;;;5.77;;
5995;SDS011;3026;53.612;7.278;2023-02-01T01:55:20;37.67;;;5.37;;
5995;SDS011;3026;53.612;7.278;2023-02-01T01:57:50;31.13;;;5.87;;
5995;SDS011;3026;53.612;7.278;2023-02-01T02:00:22;28.77;;;7.23;;
5995;SDS011;3026;53.612;7.278;2023-02-01T02:02:53;26.83;;;5.67;;
5995;SDS011;3026;53.612;7.278;2023-02-01T02:05:24;27.83;;;6.37;;
5995;SDS011;3026;53.612;7.278;2023-02-01T02:07:52;25.97;;;5.87;;
5995;SDS011;3026;53.612;7.278;2023-02-01T02:10:23;18.20;;;4.20;;
5995;SDS011;3026;53.612;7.278;2023-02-01T02:13:10;21.93;;;4.33;;
5995;SDS011;3026;53.612;7.278;2023-02-01T02:15:41;15.10;;;2.83;;
5995;SDS011;3026;53.612;7.278;2023-02-01T02:18:15;8.00;;;2.30;;
5995;SDS011;3026;53.612;7.278;2023-02-01T02:20:58;15.97;;;3.20;;
5995;SDS011;3026;53.612;7.278;2023-02-01T02:23:45;18.57;;;3.80;;
5995;SDS011;3026;53.612;7.278;2023-02-01T02:35:45;26.73;;;4.23;;
5995;SDS011;3026;53.612;7.278;2023-02-01T02:38:21;29.20;;;6.97;;
5995;SDS011;3026;53.612;7.278;2023-02-01T02:40:56;33.03;;;7.73;;
5995;SDS011;3026;53.612;7.278;2023-02-01T02:43:33;32.07;;;5.77;;
5995;SDS011;3026;53.612;7.278;2023-02-01T02:46:28;26.97;;;5.40;;
5995;SDS011;3026;53.612;7.278;2023-02-01T02:49:20;29.43;;;5.50;;
5995;SDS011;3026;53.612;7.278;2023-02-01T02:51:55;26.57;;;5.77;;
5995;SDS011;3026;53.612;7.278;2023-02-01T02:54:45;16.60;;;3.90;;
5995;SDS011;3026;53.612;7.278;2023-02-01T02:57:18;13.63;;;3.30;;
5995;SDS011;3026;53.612;7.278;2023-02-01T03:00:04;15.47;;;3.50;;
5995;SDS011;3026;53.612;7.278;2023-02-01T03:02:53;17.33;;;3.80;;
5995;SDS011;3026;53.612;7.278;2023-02-01T03:05:41;21.07;;;4.00;;
5995;SDS011;3026;53.612;7.278;2023-02-01T03:08:11;23.43;;;4.63;;
5995;SDS011;3026;53.612;7.278;2023-02-01T03:10:41;23.50;;;4.10;;
5995;SDS011;3026;53.612;7.278;2023-02-01T03:13:15;27.30;;;4.87;;
5995;SDS011;3026;53.612;7.278;2023-02-01T03:15:47;25.20;;;5.00;;
5995;SDS011;3026;53.612;7.278;2023-02-01T03:18:22;34.37;;;6.70;;
5995;SDS011;3026;53.612;7.278;2023-02-01T03:20:56;17.60;;;4.40;;
5995;SDS011;3026;53.612;7.278;2023-02-01T03:23:30;29.57;;;5.83;;
5995;SDS011;3026;53.612;7.278;2023-02-01T03:26:01;30.27;;;5.60;;
5995;SDS011;3026;53.612;7.278;2023-02-01T03:28:30;42.67;;;6.60;;
5995;SDS011;3026;53.612;7.278;2023-02-01T03:30:59;32.20;;;6.87;;
5995;SDS011;3026;53.612;7.278;2023-02-01T03:33:27;30.07;;;7.20;;
5995;SDS011;3026;53.612;7.278;2023-02-01T03:36:09;29.50;;;6.23;;
5995;SDS011;3026;53.612;7.278;2023-02-01T03:38:43;36.13;;;6.20;;
5995;SDS011;3026;53.612;7.278;2023-02-01T03:41:17;35.30;;;7.23;;
5995;SDS011;3026;53.612;7.278;2023-02-01T03:43:51;33.03;;;6.80;;
5995;SDS011;3026;53.612;7.278;2023-02-01T03:46:23;32.67;;;7.73;;
5995;SDS011;3026;53.612;7.278;2023-02-01T03:48:59;37.97;;;6.80;;
5995;SDS011;3026;53.612;7.278;2023-02-01T03:51:31;31.67;;;6.30;;
5995;SDS011;3026;53.612;7.278;2023-02-01T03:53:59;30.30;;;6.43;;
5995;SDS011;3026;53.612;7.278;2023-02-01T03:56:28;32.27;;;6.23;;
5995;SDS011;3026;53.612;7.278;2023-02-01T03:58:57;32.40;;;7.30;;
5995;SDS011;3026;53.612;7.278;2023-02-01T04:01:25;26.40;;;5.83;;
5995;SDS011;3026;53.612;7.278;2023-02-01T04:03:53;25.47;;;5.03;;
5995;SDS011;3026;53.612;7.278;2023-02-01T04:06:21;25.20;;;5.67;;
5995;SDS011;3026;53.612;7.278;2023-02-01T04:08:49;27.27;;;5.53;;
5995;SDS011;3026;53.612;7.278;2023-02-01T04:11:17;25.90;;;5.63;;
5995;SDS011;3026;53.612;7.278;2023-02-01T04:13:47;34.93;;;6.70;;
5995;SDS011;3026;53.612;7.278;2023-02-01T04:16:14;26.67;;;5.07;;
5995;SDS011;3026;53.612;7.278;2023-02-01T04:18:41;36.57;;;6.13;;
5995;SDS011;3026;53.612;7.278;2023-02-01T04:21:08;20.57;;;4.33;;
5995;SDS011;3026;53.612;7.278;2023-02-01T04:23:35;22.13;;;4.47;;
5995;SDS011;3026;53.612;7.278;2023-02-01T04:26:04;24.60;;;7.03;;
5995;SDS011;3026;53.612;7.278;2023-02-01T04:28:31;20.20;;;4.73;;
5995;SDS011;3026;53.612;7.278;2023-02-01T04:30:58;20.17;;;5.03;;
5995;SDS011;3026;53.612;7.278;2023-02-01T04:33:25;24.53;;;6.07;;
5995;SDS011;3026;53.612;7.278;2023-02-01T04:35:52;23.37;;;5.77;;
5995;SDS011;3026;53.612;7.278;2023-02-01T04:38:19;24.30;;;5.10;;
5995;SDS011;3026;53.612;7.278;2023-02-01T04:40:47;28.00;;;6.67;;
5995;SDS011;3026;53.612;7.278;2023-02-01T04:43:16;32.33;;;5.47;;
5995;SDS011;3026;53.612;7.278;2023-02-01T04:45:46;26.67;;;5.77;;
5995;SDS011;3026;53.612;7.278;2023-02-01T04:48:14;37.07;;;5.77;;
5995;SDS011;3026;53.612;7.278;2023-02-01T04:50:42;21.73;;;4.33;;
5995;SDS011;3026;53.612;7.278;2023-02-01T04:53:10;18.93;;;4.37;;
5995;SDS011;3026;53.612;7.278;2023-02-01T04:55:37;17.13;;;4.07;;
5995;SDS011;3026;53.612;7.278;2023-02-01T04:58:04;23.13;;;4.40;;
5995;SDS011;3026;53.612;7.278;2023-02-01T05:00:32;14.73;;;4.93;;
5995;SDS011;3026;53.612;7.278;2023-02-01T05:02:59;27.50;;;5.73;;
5995;SDS011;3026;53.612;7.278;2023-02-01T05:05:26;24.90;;;4.90;;
5995;SDS011;3026;53.612;7.278;2023-02-01T05:07:53;25.43;;;5.87;;
5995;SDS011;3026;53.612;7.278;2023-02-01T05:10:20;30.73;;;5.23;;
5995;SDS011;3026;53.612;7.278;2023-02-01T05:12:47;27.17;;;6.00;;
5995;SDS011;3026;53.612;7.278;2023-02-01T05:15:38;27.93;;;5.83;;
5995;SDS011;3026;53.612;7.278;2023-02-01T05:18:05;32.93;;;4.93;;
5995;SDS011;3026;53.612;7.278;2023-02-01T05:20:32;23.73;;;5.70;;
5995;SDS011;3026;53.612;7.278;2023-02-01T05:22:59;32.07;;;5.50;;
5995;SDS011;3026;53.612;7.278;2023-02-01T05:25:26;24.40;;;5.10;;
5995;SDS011;3026;53.612;7.278;2023-02-01T05:27:53;29.40;;;5.43;;
5995;SDS011;3026;53.612;7.278;2023-02-01T05:30:19;29.73;;;5.37;;
5995;SDS011;3026;53.612;7.278;2023-02-01T05:32:50;22.83;;;4.83;;
5995;SDS011;3026;53.612;7.278;2023-02-01T05:35:17;22.97;;;4.83;;
5995;SDS011;3026;53.612;7.278;2023-02-01T05:37:44;29.80;;;4.80;;
5995;SDS011;3026;53.612;7.278;2023-02-01T05:40:12;28.77;;;5.90;;
5995;SDS011;3026;53.612;7.278;2023-02-01T05:42:41;35.17;;;6.23;;
5995;SDS011;3026;53.612;7.278;2023-02-01T05:45:09;32.63;;;5.43;;
5995;SDS011;3026;53.612;7.278;2023-02-01T05:47:37;26.93;;;5.77;;
5995;SDS011;3026;53.612;7.278;2023-02-01T05:50:06;24.00;;;5.77;;
5995;SDS011;3026;53.612;7.278;2023-02-01T05:52:33;30.80;;;6.47;;
5995;SDS011;3026;53.612;7.278;2023-02-01T05:55:00;18.43;;;4.77;;
5995;SDS011;3026;53.612;7.278;2023-02-01T05:57:27;26.30;;;5.13;;
5995;SDS011;3026;53.612;7.278;2023-02-01T05:59:55;25.37;;;5.20;;
5995;SDS011;3026;53.612;7.278;2023-02-01T06:02:22;22.57;;;5.03;;
5995;SDS011;3026;53.612;7.278;2023-02-01T06:04:50;31.33;;;5.10;;
5995;SDS011;3026;53.612;7.278;2023-02-01T06:07:19;29.23;;;5.27;;
5995;SDS011;3026;53.612;7.278;2023-02-01T06:09:45;23.33;;;6.13;;
5995;SDS011;3026;53.612;7.278;2023-02-01T06:12:12;27.57;;;5.07;;
5995;SDS011;3026;53.612;7.278;2023-02-01T06:14:39;26.13;;;5.13;;
5995;SDS011;3026;53.612;7.278;2023-02-01T06:17:08;24.80;;;5.10;;
5995;SDS011;3026;53.612;7.278;2023-02-01T06:19:35;20.40;;;4.37;;
5995;SDS011;3026;53.612;7.278;2023-02-01T06:22:02;29.90;;;4.77;;
5995;SDS011;3026;53.612;7.278;2023-02-01T06:24:32;16.93;;;3.50;;
5995;SDS011;3026;53.612;7.278;2023-02-01T06:26:59;20.73;;;4.33;;
5995;SDS011;3026;53.612;7.278;2023-02-01T06:29:26;25.30;;;4.73;;
5995;SDS011;3026;53.612;7.278;2023-02-01T06:31:53;21.03;;;3.83;;
5995;SDS011;3026;53.612;7.278;2023-02-01T06:34:20;31.47;;;5.10;;
5995;SDS011;3026;53.612;7.278;2023-02-01T06:36:48;26.03;;;5.00;;
5995;SDS011;3026;53.612;7.278;2023-02-01T06:39:15;25.57;;;6.70;;
5995;SDS011;3026;53.612;7.278;2023-02-01T06:41:46;30.93;;;5.13;;
5995;SDS011;3026;53.612;7.278;2023-02-01T06:44:14;20.07;;;4.33;;
5995;SDS011;3026;53.612;7.278;2023-02-01T06:46:41;25.83;;;5.33;;
5995;SDS011;3026;53.612;7.278;2023-02-01T06:49:08;23.60;;;5.17;;
5995;SDS011;3026;53.612;7.278;2023-02-01T06:51:34;19.60;;;4.63;;
5995;SDS011;3026;53.612;7.278;2023-02-01T06:54:01;24.83;;;5.53;;
5995;SDS011;3026;53.612;7.278;2023-02-01T06:56:28;24.60;;;4.53;;
5995;SDS011;3026;53.612;7.278;2023-02-01T06:58:58;27.73;;;5.13;;
5995;SDS011;3026;53.612;7.278;2023-02-01T07:01:25;21.10;;;4.97;;
5995;SDS011;3026;53.612;7.278;2023-02-01T07:03:52;22.17;;;4.87;;
5995;SDS011;3026;53.612;7.278;2023-02-01T07:06:19;18.63;;;4.13;;
5995;SDS011;3026;53.612;7.278;2023-02-01T07:08:46;18.97;;;4.77;;
5995;SDS011;3026;53.612;7.278;2023-02-01T07:11:16;16.10;;;4.33;;
5995;SDS011;3026;53.612;7.278;2023-02-01T07:13:44;20.43;;;5.57;;
5995;SDS011;3026;53.612;7.278;2023-02-01T07:16:13;20.33;;;4.37;;
5995;SDS011;3026;53.612;7.278;2023-02-01T07:18:42;31.00;;;5.57;;
5995;SDS011;3026;53.612;7.278;2023-02-01T07:21:09;22.60;;;6.20;;
5995;SDS011;3026;53.612;7.278;2023-02-01T07:23:36;28.60;;;4.23;;
5995;SDS011;3026;53.612;7.278;2023-02-01T07:26:05;16.80;;;4.53;;
5995;SDS011;3026;53.612;7.278;2023-02-01T07:28:34;27.23;;;4.47;;
5995;SDS011;3026;53.612;7.278;2023-02-01T07:31:03;22.40;;;4.23;;
5995;SDS011;3026;53.612;7.278;2023-02-01T07:33:32;23.03;;;3.80;;
5995;SDS011;3026;53.612;7.278;2023-02-01T07:36:00;21.40;;;4.27;;
5995;SDS011;3026;53.612;7.278;2023-02-01T07:38:28;24.27;;;4.37;;
5995;SDS011;3026;53.612;7.278;2023-02-01T07:40:56;21.57;;;5.03;;
5995;SDS011;3026;53.612;7.278;2023-02-01T07:43:24;15.17;;;4.10;;
5995;SDS011;3026;53.612;7.278;2023-02-01T07:45:51;19.10;;;4.90;;
5995;SDS011;3026;53.612;7.278;2023-02-01T07:48:19;23.33;;;4.30;;
5995;SDS011;3026;53.612;7.278;2023-02-01T07:50:47;27.30;;;5.50;;
5995;SDS011;3026;53.612;7.278;2023-02-01T07:53:14;24.77;;;4.73;;
5995;SDS011;3026;53.612;7.278;2023-02-01T07:55:41;20.00;;;4.23;;
5995;SDS011;3026;53.612;7.278;2023-02-01T07:58:09;30.90;;;4.60;;
5995;SDS011;3026;53.612;7.278;2023-02-01T08:00:35;28.63;;;5.63;;
5995;SDS011;3026;53.612;7.278;2023-02-01T08:03:20;23.10;;;4.40;;
5995;SDS011;3026;53.612;7.278;2023-02-01T08:05:48;26.53;;;4.90;;
5995;SDS011;3026;53.612;7.278;2023-02-01T08:08:19;21.70;;;5.53;;
5995;SDS011;3026;53.612;7.278;2023-02-01T08:10:46;22.53;;;5.03;;
5995;SDS011;3026;53.612;7.278;2023-02-01T08:13:13;25.37;;;4.07;;
5995;SDS011;3026;53.612;7.278;2023-02-01T08:15:41;18.90;;;5.10;;
5995;SDS011;3026;53.612;7.278;2023-02-01T08:18:07;22.50;;;4.60;;
5995;SDS011;3026;53.612;7.278;2023-02-01T08:20:36;21.60;;;4.77;;
5995;SDS011;3026;53.612;7.278;2023-02-01T08:23:08;21.60;;;5.40;;
5995;SDS011;3026;53.612;7.278;2023-02-01T08:25:37;28.53;;;5.90;;
5995;SDS011;3026;53.612;7.278;2023-02-01T08:28:05;20.83;;;4.47;;
5995;SDS011;3026;53.612;7.278;2023-02-01T08:30:32;27.60;;;5.10;;
5995;SDS011;3026;53.612;7.278;2023-02-01T08:32:59;24.10;;;4.60;;
5995;SDS011;3026;53.612;7.278;2023-02-01T08:35:26;24.33;;;5.27;;
5995;SDS011;3026;53.612;7.278;2023-02-01T08:37:53;25.70;;;5.07;;
5995;SDS011;3026;53.612;7.278;2023-02-01T08:40:22;22.70;;;4.53;;
5995;SDS011;3026;53.612;7.278;2023-02-01T08:42:49;28.97;;;4.70;;
5995;SDS011;3026;53.612;7.278;2023-02-01T08:45:19;21.97;;;5.40;;
5995;SDS011;3026;53.612;7.278;2023-02-01T08:47:49;22.57;;;5.13;;
5995;SDS011;3026;53.612;7.278;2023-02-01T08:50:19;23.77;;;4.87;;
5995;SDS011;3026;53.612;7.278;2023-02-01T08:52:47;29.23;;;4.53;;
5995;SDS011;3026;53.612;7.278;2023-02-01T08:55:14;21.97;;;4.23;;
5995;SDS011;3026;53.612;7.278;2023-02-01T08:57:43;22.90;;;5.17;;
5995;SDS011;3026;53.612;7.278;2023-02-01T09:00:11;30.47;;;5.80;;
5995;SDS011;3026;53.612;7.278;2023-02-01T09:02:40;27.43;;;5.20;;
5995;SDS011;3026;53.612;7.278;2023-02-01T09:05:07;19.27;;;4.47;;
5995;SDS011;3026;53.612;7.278;2023-02-01T09:07:39;26.70;;;5.13;;
5995;SDS011;3026;53.612;7.278;2023-02-01T09:10:07;26.93;;;5.17;;
5995;SDS011;3026;53.612;7.278;2023-02-01T09:12:35;18.50;;;4.50;;
5995;SDS011;3026;53.612;7.278;2023-02-01T09:15:05;25.47;;;5.17;;
5995;SDS011;3026;53.612;7.278;2023-02-01T09:17:33;16.80;;;3.73;;
5995;SDS011;3026;53.612;7.278;2023-02-01T09:20:00;17.67;;;4.00;;
5995;SDS011;3026;53.612;7.278;2023-02-01T09:22:28;20.93;;;4.80;;
5995;SDS011;3026;53.612;7.278;2023-02-01T09:24:55;17.00;;;5.53;;
5995;SDS011;3026;53.612;7.278;2023-02-01T09:27:21;24.23;;;5.07;;
5995;SDS011;3026;53.612;7.278;2023-02-01T09:29:48;27.03;;;5.27;;
5995;SDS011;3026;53.612;7.278;2023-02-01T09:32:19;23.63;;;5.17;;
5995;SDS011;3026;53.612;7.278;2023-02-01T09:34:47;26.77;;;4.90;;
5995;SDS011;3026;53.612;7.278;2023-02-01T09:37:14;18.27;;;5.27;;
5995;SDS011;3026;53.612;7.278;2023-02-01T09:39:41;17.90;;;4.53;;
5995;SDS011;3026;53.612;7.278;2023-02-01T09:42:15;28.70;;;5.90;;
5995;SDS011;3026;53.612;7.278;2023-02-01T09:44:52;26.37;;;6.03;;
5995;SDS011;3026;53.612;7.278;2023-02-01T09:47:28;38.97;;;7.57;;
5995;SDS011;3026;53.612;7.278;2023-02-01T09:49:59;25.30;;;5.87;;
5995;SDS011;3026;53.612;7.278;2023-02-01T09:52:29;39.93;;;6.67;;
5995;SDS011;3026;53.612;7.278;2023-02-01T09:55:02;36.57;;;6.60;;
5995;SDS011;3026;53.612;7.278;2023-02-01T09:57:39;31.47;;;6.37;;
5995;SDS011;3026;53.612;7.278;2023-02-01T10:00:13;33.97;;;7.80;;
5995;SDS011;3026;53.612;7.278;2023-02-01T10:02:45;38.50;;;6.70;;
5995;SDS011;3026;53.612;7.278;2023-02-01T10:05:13;40.03;;;7.67;;
5995;SDS011;3026;53.612;7.278;2023-02-01T10:07:44;28.80;;;6.57;;
5995;SDS011;3026;53.612;7.278;2023-02-01T10:10:17;26.90;;;5.70;;
5995;SDS011;3026;53.612;7.278;2023-02-01T10:15:52;36.30;;;6.30;;
5995;SDS011;3026;53.612;7.278;2023-02-01T10:18:34;31.63;;;5.83;;
5995;SDS011;3026;53.612;7.278;2023-02-01T10:21:10;26.93;;;5.87;;
5995;SDS011;3026;53.612;7.278;2023-02-01T10:24:04;29.63;;;6.10;;
5995;SDS011;3026;53.612;7.278;2023-02-01T10:26:50;19.33;;;4.93;;
5995;SDS011;3026;53.612;7.278;2023-02-01T10:29:22;26.97;;;5.30;;
5995;SDS011;3026;53.612;7.278;2023-02-01T10:31:54;27.83;;;5.17;;
5995;SDS011;3026;53.612;7.278;2023-02-01T10:34:24;22.83;;;4.83;;
5995;SDS011;3026;53.612;7.278;2023-02-01T10:36:54;26.77;;;5.73;;
5995;SDS011;3026;53.612;7.278;2023-02-01T10:39:22;22.50;;;5.30;;
5995;SDS011;3026;53.612;7.278;2023-02-01T10:41:50;23.00;;;5.60;;
5995;SDS011;3026;53.612;7.278;2023-02-01T10:44:18;19.23;;;4.80;;
5995;SDS011;3026;53.612;7.278;2023-02-01T10:46:48;25.00;;;4.80;;
5995;SDS011;3026;53.612;7.278;2023-02-01T10:49:17;20.53;;;5.23;;
5995;SDS011;3026;53.612;7.278;2023-02-01T10:51:52;21.73;;;4.77;;
5995;SDS011;3026;53.612;7.278;2023-02-01T10:54:31;20.03;;;4.60;;
5995;SDS011;3026;53.612;7.278;2023-02-01T10:57:00;10.13;;;2.90;;
5995;SDS011;3026;53.612;7.278;2023-02-01T10:59:28;6.67;;;2.37;;
5995;SDS011;3026;53.612;7.278;2023-02-01T11:01:58;7.47;;;1.83;;
5995;SDS011;3026;53.612;7.278;2023-02-01T11:04:36;8.03;;;1.40;;
5995;SDS011;3026;53.612;7.278;2023-02-01T11:07:12;5.17;;;1.30;;
5995;SDS011;3026;53.612;7.278;2023-02-01T11:09:42;3.57;;;0.90;;
5995;SDS011;3026;53.612;7.278;2023-02-01T11:12:22;9.13;;;1.20;;
5995;SDS011;3026;53.612;7.278;2023-02-01T11:14:54;7.37;;;1.43;;
5995;SDS011;3026;53.612;7.278;2023-02-01T11:17:25;10.53;;;1.50;;
5995;SDS011;3026;53.612;7.278;2023-02-01T11:19:56;3.10;;;1.10;;
5995;SDS011;3026;53.612;7.278;2023-02-01T11:22:26;2.03;;;0.53;;
5995;SDS011;3026;53.612;7.278;2023-02-01T11:24:54;3.73;;;1.10;;
5995;SDS011;3026;53.612;7.278;2023-02-01T11:27:22;4.53;;;1.13;;
5995;SDS011;3026;53.612;7.278;2023-02-01T11:29:52;5.07;;;1.00;;
5995;SDS011;3026;53.612;7.278;2023-02-01T11:32:29;3.43;;;1.07;;
5995;SDS011;3026;53.612;7.278;2023-02-01T11:34:59;4.23;;;1.07;;
5995;SDS011;3026;53.612;7.278;2023-02-01T11:37:30;5.13;;;1.30;;
5995;SDS011;3026;53.612;7.278;2023-02-01T11:40:00;4.77;;;1.37;;
5995;SDS011;3026;53.612;7.278;2023-02-01T11:42:30;11.50;;;1.63;;
5995;SDS011;3026;53.612;7.278;2023-02-01T11:45:17;5.23;;;1.40;;
5995;SDS011;3026;53.612;7.278;2023-02-01T11:47:46;8.17;;;1.60;;
5995;SDS011;3026;53.612;7.278;2023-02-01T11:50:19;7.87;;;2.77;;
5995;SDS011;3026;53.612;7.278;2023-02-01T11:53:00;6.60;;;1.53;;
5995;SDS011;3026;53.612;7.278;2023-02-01T11:55:55;5.97;;;1.70;;
5995;SDS011;3026;53.612;7.278;2023-02-01T11:58:35;13.50;;;2.33;;
5995;SDS011;3026;53.612;7.278;2023-02-01T12:01:21;16.10;;;2.93;;
5995;SDS011;3026;53.612;7.278;2023-02-01T12:07:09;16.43;;;2.50;;
5995;SDS011;3026;53.612;7.278;2023-02-01T12:09:46;13.87;;;3.67;;
5995;SDS011;3026;53.612;7.278;2023-02-01T12:12:28;14.27;;;2.57;;
5995;SDS011;3026;53.612;7.278;2023-02-01T12:21:06;16.57;;;2.60;;
5995;SDS011;3026;53.612;7.278;2023-02-01T12:23:53;11.60;;;2.93;;
5995;SDS011;3026;53.612;7.278;2023-02-01T12:26:44;19.50;;;3.40;;
5995;SDS011;3026;53.612;7.278;2023-02-01T12:32:22;15.80;;;2.93;;
5995;SDS011;3026;53.612;7.278;2023-02-01T12:35:02;16.63;;;3.17;;
5995;SDS011;3026;53.612;7.278;2023-02-01T12:37:53;15.50;;;3.10;;
5995;SDS011;3026;53.612;7.278;2023-02-01T12:43:25;19.83;;;4.07;;
5995;SDS011;3026;53.612;7.278;2023-02-01T12:46:06;15.77;;;3.43;;
5995;SDS011;3026;53.612;7.278;2023-02-01T12:48:40;18.10;;;5.10;;
5995;SDS011;3026;53.612;7.278;2023-02-01T12:51:20;22.17;;;4.37;;
5995;SDS011;3026;53.612;7.278;2023-02-01T12:53:51;21.03;;;4.13;;
5995;SDS011;3026;53.612;7.278;2023-02-01T12:56:21;33.30;;;5.33;;
5995;SDS011;3026;53.612;7.278;2023-02-01T12:58:54;19.30;;;5.07;;
5995;SDS011;3026;53.612;7.278;2023-02-01T13:01:26;21.63;;;5.13;;
5995;SDS011;3026;53.612;7.278;2023-02-01T13:04:02;21.30;;;5.73;;
5995;SDS011;3026;53.612;7.278;2023-02-01T13:06:37;19.73;;;3.67;;
5995;SDS011;3026;53.612;7.278;2023-02-01T13:09:09;21.03;;;5.43;;
5995;SDS011;3026;53.612;7.278;2023-02-01T13:11:44;26.10;;;4.77;;
5995;SDS011;3026;53.612;7.278;2023-02-01T13:14:19;23.63;;;4.90;;
5995;SDS011;3026;53.612;7.278;2023-02-01T13:16:56;25.10;;;4.83;;
5995;SDS011;3026;53.612;7.278;2023-02-01T13:19:27;20.17;;;4.60;;
5995;SDS011;3026;53.612;7.278;2023-02-01T13:21:58;24.80;;;6.50;;
5995;SDS011;3026;53.612;7.278;2023-02-01T13:24:33;24.00;;;4.33;;
5995;SDS011;3026;53.612;7.278;2023-02-01T13:27:09;17.70;;;4.10;;
5995;SDS011;3026;53.612;7.278;2023-02-01T13:29:40;24.63;;;5.63;;
5995;SDS011;3026;53.612;7.278;2023-02-01T13:32:21;20.17;;;5.00;;
5995;SDS011;3026;53.612;7.278;2023-02-01T13:35:24;22.03;;;4.97;;
5995;SDS011;3026;53.612;7.278;2023-02-01T13:38:24;25.97;;;4.03;;
5995;SDS011;3026;53.612;7.278;2023-02-01T13:41:06;25.67;;;4.53;;
5995;SDS011;3026;53.612;7.278;2023-02-01T13:43:47;26.93;;;5.93;;
5995;SDS011;3026;53.612;7.278;2023-02-01T13:46:20;26.77;;;5.43;;
5995;SDS011;3026;53.612;7.278;2023-02-01T13:48:48;21.47;;;4.40;;
5995;SDS011;3026;53.612;7.278;2023-02-01T13:51:18;15.77;;;4.50;;
5995;SDS011;3026;53.612;7.278;2023-02-01T13:53:59;25.53;;;5.50;;
5995;SDS011;3026;53.612;7.278;2023-02-01T13:56:27;20.00;;;4.23;;
5995;SDS011;3026;53.612;7.278;2023-02-01T13:58:54;19.87;;;4.47;;
5995;SDS011;3026;53.612;7.278;2023-02-01T14:07:19;28.50;;;4.70;;
5995;SDS011;3026;53.612;7.278;2023-02-01T14:09:48;26.97;;;4.57;;
5995;SDS011;3026;53.612;7.278;2023-02-01T14:15:17;21.30;;;4.97;;
5995;SDS011;3026;53.612;7.278;2023-02-01T14:17:53;24.07;;;5.17;;
5995;SDS011;3026;53.612;7.278;2023-02-01T14:23:20;23.63;;;4.93;;
5995;SDS011;3026;53.612;7.278;2023-02-01T14:28:56;24.53;;;5.00;;
5995;SDS011;3026;53.612;7.278;2023-02-01T14:34:24;26.03;;;6.17;;
5995;SDS011;3026;53.612;7.278;2023-02-01T14:36:58;31.63;;;4.63;;
5995;SDS011;3026;53.612;7.278;2023-02-01T14:42:23;16.77;;;4.67;;
5995;SDS011;3026;53.612;7.278;2023-02-01T14:44:53;7.97;;;2.20;;
5995;SDS011;3026;53.612;7.278;2023-02-01T14:47:30;10.30;;;2.37;;
5995;SDS011;3026;53.612;7.278;2023-02-01T14:50:16;11.87;;;2.93;;
5995;SDS011;3026;53.612;7.278;2023-02-01T14:52:50;18.43;;;3.77;;
5995;SDS011;3026;53.612;7.278;2023-02-01T14:55:29;18.77;;;2.97;;
5995;SDS011;3026;53.612;7.278;2023-02-01T14:58:00;12.50;;;2.20;;
5995;SDS011;3026;53.612;7.278;2023-02-01T15:00:31;20.53;;;3.60;;
5995;SDS011;3026;53.612;7.278;2023-02-01T15:03:14;22.40;;;5.10;;
5995;SDS011;3026;53.612;7.278;2023-02-01T15:05:56;33.40;;;5.13;;
5995;SDS011;3026;53.612;7.278;2023-02-01T15:08:24;23.30;;;4.03;;
5995;SDS011;3026;53.612;7.278;2023-02-01T15:10:55;14.13;;;3.53;;
5995;SDS011;3026;53.612;7.278;2023-02-01T15:13:26;26.27;;;4.50;;
5995;SDS011;3026;53.612;7.278;2023-02-01T15:16:04;18.70;;;3.17;;
5995;SDS011;3026;53.612;7.278;2023-02-01T15:18:35;17.40;;;3.50;;
5995;SDS011;3026;53.612;7.278;2023-02-01T15:21:05;13.03;;;2.37;;
5995;SDS011;3026;53.612;7.278;2023-02-01T15:23:33;16.83;;;3.20;;
5995;SDS011;3026;53.612;7.278;2023-02-01T15:26:00;20.90;;;4.87;;
5995;SDS011;3026;53.612;7.278;2023-02-01T15:28:27;20.40;;;4.43;;
5995;SDS011;3026;53.612;7.278;2023-02-01T15:30:55;24.23;;;5.13;;
5995;SDS011;3026;53.612;7.278;2023-02-01T15:33:24;32.83;;;5.67;;
5995;SDS011;3026;53.612;7.278;2023-02-01T15:35:53;24.40;;;4.80;;
5995;SDS011;3026;53.612;7.278;2023-02-01T15:38:30;38.00;;;5.27;;
5995;SDS011;3026;53.612;7.278;2023-02-01T15:40:59;25.50;;;4.63;;
5995;SDS011;3026;53.612;7.278;2023-02-01T15:43:29;28.60;;;4.63;;
5995;SDS011;3026;53.612;7.278;2023-02-01T15:45:59;21.00;;;4.13;;
5995;SDS011;3026;53.612;7.278;2023-02-01T15:48:29;26.10;;;4.87;;
5995;SDS011;3026;53.612;7.278;2023-02-01T15:51:01;28.73;;;5.10;;
5995;SDS011;3026;53.612;7.278;2023-02-01T15:53:31;23.27;;;5.17;;
5995;SDS011;3026;53.612;7.278;2023-02-01T15:56:00;33.80;;;5.13;;
5995;SDS011;3026;53.612;7.278;2023-02-01T15:58:30;26.07;;;5.73;;
5995;SDS011;3026;53.612;7.278;2023-02-01T16:00:59;22.53;;;4.50;;
5995;SDS011;3026;53.612;7.278;2023-02-01T16:03:34;24.70;;;4.80;;
5995;SDS011;3026;53.612;7.278;2023-02-01T16:06:04;29.83;;;5.83;;
5995;SDS011;3026;53.612;7.278;2023-02-01T16:08:34;31.37;;;5.53;;
5995;SDS011;3026;53.612;7.278;2023-02-01T16:11:14;24.37;;;4.73;;
5995;SDS011;3026;53.612;7.278;2023-02-01T16:13:48;20.67;;;4.63;;
5995;SDS011;3026;53.612;7.278;2023-02-01T16:16:15;25.03;;;5.60;;